TimeCST,TemperatureF,Dew PointF,Humidity,Sea Level PressureIn,VisibilityMPH,Wind Direction,Wind SpeedMPH,Gust SpeedMPH,PrecipitationIn,Events,Conditions,WindDirDegrees,DateUTC
12:15 AM,62.6,50.4,64,30.25,10.0,East,4.6,-,N/A,,Overcast,100,2013-01-23 06:15:00
12:35 AM,62.6,50.9,66,30.25,10.0,East,4.6,-,N/A,,Overcast,90,2013-01-23 06:35:00
12:55 AM,62.6,51.1,66,30.25,10.0,East,5.8,-,N/A,,Overcast,90,2013-01-23 06:55:00
1:15 AM,62.8,51.4,66,30.25,10.0,ESE,5.8,-,N/A,,Overcast,110,2013-01-23 07:15:00
1:35 AM,62.8,51.8,67,30.25,10.0,ESE,5.8,-,N/A,,Overcast,110,2013-01-23 07:35:00
1:55 AM,62.6,51.8,68,30.24,10.0,ESE,4.6,-,N/A,,Overcast,110,2013-01-23 07:55:00
2:15 AM,62.1,51.8,69,30.24,10.0,ESE,3.5,-,N/A,,Overcast,110,2013-01-23 08:15:00
2:35 AM,61.5,51.8,70,30.23,10.0,Calm,Calm,-,N/A,,Mostly Cloudy,0,2013-01-23 08:35:00
2:55 AM,60.1,51.4,73,30.23,10.0,Calm,Calm,-,N/A,,Scattered Clouds,0,2013-01-23 08:55:00
3:15 AM,58.8,50.9,75,30.22,10.0,Calm,Calm,-,N/A,,Clear,0,2013-01-23 09:15:00
3:35 AM,57.4,50.7,78,30.22,10.0,Calm,Calm,-,N/A,,Clear,0,2013-01-23 09:35:00
3:55 AM,57.4,51.1,79,30.23,10.0,Calm,Calm,-,N/A,,Clear,0,2013-01-23 09:55:00
4:15 AM,57.2,51.3,81,30.23,10.0,Calm,Calm,-,N/A,,Scattered Clouds,0,2013-01-23 10:15:00
4:35 AM,55.4,49.6,81,30.23,10.0,Calm,Calm,-,N/A,,Overcast,0,2013-01-23 10:35:00
4:55 AM,56.5,50.9,82,30.23,10.0,Calm,Calm,-,N/A,,Overcast,0,2013-01-23 10:55:00
5:15 AM,57.4,51.8,82,30.24,10.0,Calm,Calm,-,N/A,,Overcast,0,2013-01-23 11:15:00
5:35 AM,56.3,50.5,81,30.24,10.0,Calm,Calm,-,N/A,,Scattered Clouds,0,2013-01-23 11:35:00
5:55 AM,56.8,52.5,85,30.25,10.0,East,3.5,-,N/A,,Scattered Clouds,80,2013-01-23 11:55:00
6:15 AM,57.4,53.4,87,30.25,10.0,Calm,Calm,-,N/A,,Mostly Cloudy,0,2013-01-23 12:15:00
6:35 AM,58.8,53.6,83,30.25,10.0,Calm,Calm,-,N/A,,Overcast,0,2013-01-23 12:35:00
6:55 AM,59.0,53.4,82,30.25,10.0,Calm,Calm,-,N/A,,Overcast,0,2013-01-23 12:55:00
7:15 AM,59.0,53.2,81,30.26,10.0,Calm,Calm,-,N/A,,Overcast,0,2013-01-23 13:15:00
7:35 AM,58.6,53.6,83,30.26,10.0,Calm,Calm,-,N/A,,Overcast,0,2013-01-23 13:35:00
7:55 AM,58.3,53.4,84,30.26,10.0,Calm,Calm,-,N/A,,Scattered Clouds,0,2013-01-23 13:55:00
8:35 AM,61.5,54.7,78,30.27,10.0,SE,3.5,-,N/A,,Clear,130,2013-01-23 14:35:00
8:55 AM,64.6,56.7,75,30.28,10.0,Calm,Calm,-,N/A,,Clear,0,2013-01-23 14:55:00
9:15 AM,66.9,58.1,73,30.28,10.0,SE,5.8,-,N/A,,Scattered Clouds,140,2013-01-23 15:15:00
9:35 AM,67.3,59.0,75,30.29,10.0,South,4.6,-,N/A,,Mostly Cloudy,170,2013-01-23 15:35:00
9:55 AM,68.9,60.1,73,30.30,10.0,SSE,6.9,-,N/A,,Overcast,150,2013-01-23 15:55:00
10:15 AM,70.7,59.7,68,30.31,10.0,SE,6.9,-,N/A,,Overcast,130,2013-01-23 16:15:00
10:35 AM,70.2,59.5,69,30.31,10.0,South,4.6,-,N/A,,Mostly Cloudy,190,2013-01-23 16:35:00
10:55 AM,72.3,59.2,63,30.32,10.0,SSE,6.9,-,N/A,,Overcast,150,2013-01-23 16:55:00
11:15 AM,71.1,58.6,65,30.32,10.0,South,4.6,-,N/A,,Overcast,190,2013-01-23 17:15:00
11:35 AM,71.2,58.8,65,30.31,10.0,SSE,4.6,-,N/A,,Overcast,160,2013-01-23 17:35:00
11:55 AM,72.1,58.5,62,30.30,10.0,South,5.8,-,N/A,,Overcast,170,2013-01-23 17:55:00
12:15 PM,73.0,58.3,60,30.29,10.0,SSE,6.9,-,N/A,,Overcast,160,2013-01-23 18:15:00
12:35 PM,73.6,59.0,60,30.28,10.0,SSE,6.9,-,N/A,,Overcast,160,2013-01-23 18:35:00
12:55 PM,73.6,59.0,60,30.27,10.0,SSE,5.8,-,N/A,,Overcast,160,2013-01-23 18:55:00
1:15 PM,73.9,58.1,58,30.25,10.0,South,3.5,-,N/A,,Overcast,170,2013-01-23 19:15:00
1:35 PM,75.7,58.1,54,30.24,10.0,SSE,6.9,-,N/A,,Overcast,150,2013-01-23 19:35:00
1:55 PM,75.6,57.4,53,30.23,10.0,SE,8.1,-,N/A,,Overcast,130,2013-01-23 19:55:00
2:15 PM,75.7,57.2,52,30.22,10.0,SSE,8.1,-,N/A,,Mostly Cloudy,160,2013-01-23 20:15:00
2:35 PM,76.1,56.5,50,30.21,10.0,SSE,10.4,-,N/A,,Mostly Cloudy,150,2013-01-23 20:35:00
2:55 PM,77.2,56.1,48,30.21,10.0,SSE,9.2,-,N/A,,Overcast,160,2013-01-23 20:55:00
3:15 PM,77.5,55.4,46,30.20,10.0,SSE,9.2,-,N/A,,Scattered Clouds,150,2013-01-23 21:15:00
3:35 PM,77.5,55.0,46,30.20,10.0,SSE,9.2,-,N/A,,Mostly Cloudy,150,2013-01-23 21:35:00
3:55 PM,76.6,54.9,47,30.20,10.0,SE,9.2,-,N/A,,Mostly Cloudy,140,2013-01-23 21:55:00
4:15 PM,77.0,54.0,45,30.19,10.0,SSE,9.2,17.3,N/A,,Scattered Clouds,160,2013-01-23 22:15:00
4:35 PM,77.2,53.8,44,30.19,10.0,SSE,8.1,-,N/A,,Clear,150,2013-01-23 22:35:00
4:55 PM,77.9,53.6,43,30.19,10.0,SSE,10.4,16.1,N/A,,Scattered Clouds,150,2013-01-23 22:55:00
5:15 PM,77.4,53.8,44,30.19,10.0,SSE,8.1,16.1,N/A,,Clear,160,2013-01-23 23:15:00
5:35 PM,76.8,54.3,46,30.19,10.0,SE,8.1,-,N/A,,Clear,140,2013-01-23 23:35:00
5:55 PM,75.6,54.5,48,30.19,10.0,SE,4.6,-,N/A,,Scattered Clouds,140,2013-01-23 23:55:00
6:15 PM,74.3,54.5,50,30.20,10.0,SE,5.8,-,N/A,,Clear,130,2013-01-24 00:15:00
6:35 PM,73.0,54.5,52,30.20,10.0,SE,4.6,-,N/A,,Clear,130,2013-01-24 00:35:00
6:55 PM,71.4,54.5,55,30.21,10.0,Calm,Calm,-,N/A,,Clear,0,2013-01-24 00:55:00
7:15 PM,69.8,54.5,58,30.21,10.0,Calm,Calm,-,N/A,,Clear,0,2013-01-24 01:15:00
7:35 PM,66.4,54.1,65,30.21,10.0,Calm,Calm,-,N/A,,Clear,0,2013-01-24 01:35:00
7:55 PM,64.6,53.8,68,30.21,10.0,SE,3.5,-,N/A,,Clear,140,2013-01-24 01:55:00
8:15 PM,66.0,54.5,66,30.22,10.0,ESE,3.5,-,N/A,,Clear,120,2013-01-24 02:15:00
8:35 PM,65.8,54.7,67,30.22,10.0,ESE,4.6,-,N/A,,Clear,110,2013-01-24 02:35:00
8:55 PM,63.7,53.4,69,30.22,10.0,Calm,Calm,-,N/A,,Clear,0,2013-01-24 02:55:00
9:15 PM,63.9,54.7,72,30.22,10.0,SE,4.6,-,N/A,,Clear,130,2013-01-24 03:15:00
9:35 PM,66.4,56.1,69,30.22,10.0,SE,6.9,-,N/A,,Clear,130,2013-01-24 03:35:00
9:55 PM,68.4,57.6,68,30.22,10.0,SSE,9.2,-,N/A,,Clear,150,2013-01-24 03:55:00
10:15 PM,68.0,58.1,71,30.22,10.0,SE,8.1,-,N/A,,Clear,140,2013-01-24 04:15:00
10:35 PM,67.3,58.3,73,30.23,10.0,SE,6.9,-,N/A,,Clear,140,2013-01-24 04:35:00
10:55 PM,67.1,58.6,74,30.23,10.0,SE,5.8,-,N/A,,Clear,140,2013-01-24 04:55:00
11:15 PM,66.6,59.2,77,30.23,10.0,SE,8.1,-,N/A,,Clear,140,2013-01-24 05:15:00
11:35 PM,66.4,59.5,79,30.23,10.0,SE,8.1,-,N/A,,Clear,140,2013-01-24 05:35:00
11:55 PM,66.0,59.9,81,30.22,10.0,SE,8.1,-,N/A,,Clear,140,2013-01-24 05:55:00